Time;durP1;ratioP1;P1;durP2;ratioP2;P2;SDS_P1;SDS_P2;PMS_P1;PMS_P2;Temp;Humidity;BMP_temperature;BMP_pressure;BME280_temperature;BME280_humidity;BME280_pressure;Samples;Min_cycle;Max_cycle;Signal;HPM_P1;HPM_P2
2024/01/04 00:01:12;;;;;;;1.00;0.80;;;;;;;7.57;100.00;93964.81;7397509;19;20368;-93
2024/01/04 00:03:53;;;;;;;1.73;1.00;;;;;;;7.90;100.00;94007.03;7398291;19;20369;-93
2024/01/04 00:06:34;;;;;;;1.43;1.00;;;;;;;7.90;100.00;94003.66;7398128;19;20384;-93
2024/01/04 00:09:15;;;;;;;1.63;0.90;;;;;;;7.57;100.00;93960.38;7398274;19;20378;-93
2024/01/04 00:11:56;;;;;;;3.23;1.17;;;;;;;7.27;100.00;93905.22;7396240;19;20422;-93
2024/01/04 00:14:37;;;;;;;1.27;0.70;;;;;;;7.11;100.00;93894.03;7397542;19;20372;-91
2024/01/04 00:17:18;;;;;;;1.73;1.17;;;;;;;7.52;100.00;93936.38;7397710;19;20360;-91
2024/01/04 00:20:00;;;;;;;1.63;1.10;;;;;;;7.34;100.00;93915.84;7397882;19;20440;-92
2024/01/04 00:22:42;;;;;;;4.20;1.20;;;;;;;7.03;100.00;93872.22;7396319;19;20424;-93
2024/01/04 00:25:23;;;;;;;0.97;0.70;;;;;;;7.84;100.00;93984.91;7396357;19;20439;-91
2024/01/04 00:28:04;;;;;;;0.87;0.87;;;;;;;7.60;100.00;93941.44;7397153;19;20384;-91
2024/01/04 00:30:45;;;;;;;2.90;2.07;;;;;;;8.01;100.00;94013.28;7426268;19;20384;-91
2024/01/04 00:33:26;;;;;;;2.70;0.90;;;;;;;7.46;100.00;93935.88;7425145;19;20428;-91
2024/01/04 00:36:09;;;;;;;2.47;0.90;;;;;;;7.28;100.00;93916.41;7427388;19;20380;-93
2024/01/04 00:38:50;;;;;;;1.07;0.97;;;;;;;7.87;100.00;93983.47;7427143;19;20381;-93
2024/01/04 00:41:31;;;;;;;0.97;0.80;;;;;;;7.87;100.00;94002.50;7426690;19;20420;-88
2024/01/04 00:44:12;;;;;;;1.03;0.93;;;;;;;7.51;100.00;93942.69;7406624;19;20456;-92
2024/01/04 00:46:54;;;;;;;1.60;1.20;;;;;;;7.06;100.00;93882.00;7397369;19;20873;-91
2024/01/04 00:49:35;;;;;;;3.37;1.20;;;;;;;7.35;100.00;93911.38;7397287;19;20732;-92
2024/01/04 00:52:16;;;;;;;1.57;1.17;;;;;;;7.89;100.00;93999.53;7395764;19;20413;-92
2024/01/04 00:54:57;;;;;;;1.50;0.80;;;;;;;7.66;100.00;93963.56;7396956;19;20704;-93
2024/01/04 00:57:38;;;;;;;2.60;1.03;;;;;;;7.59;100.00;93957.44;7396379;19;20380;-92
2024/01/04 01:00:19;;;;;;;1.77;0.80;;;;;;;7.08;100.00;93869.38;7401810;19;20450;-92
2024/01/04 01:03:00;;;;;;;3.57;0.90;;;;;;;7.45;100.00;93929.91;7402373;19;20730;-92
2024/01/04 01:05:42;;;;;;;4.13;1.30;;;;;;;8.12;100.00;94034.41;7404150;19;20384;-92
2024/01/04 01:08:24;;;;;;;1.80;0.93;;;;;;;7.76;100.00;93972.75;7403857;19;20386;-92
2024/01/04 01:11:05;;;;;;;1.87;1.37;;;;;;;7.89;100.00;93991.72;7404057;19;20412;-93
2024/01/04 01:13:46;;;;;;;1.60;1.20;;;;;;;7.32;100.00;93918.03;7400985;19;20412;-92
2024/01/04 01:16:27;;;;;;;1.90;1.43;;;;;;;7.53;100.00;93953.56;7403189;19;20384;-92
2024/01/04 01:19:08;;;;;;;2.50;1.10;;;;;;;7.22;100.00;93896.91;7403082;19;20387;-92
2024/01/04 01:21:50;;;;;;;1.97;1.13;;;;;;;7.78;100.00;93978.41;7403336;19;20412;-93
2024/01/04 01:24:31;;;;;;;2.13;0.80;;;;;;;8.42;100.00;94073.91;7402733;19;20384;-92
2024/01/04 01:27:12;;;;;;;8.13;1.13;;;;;;;8.57;100.00;94107.13;7403262;19;20384;-91
2024/01/04 01:29:53;;;;;;;0.90;0.80;;;;;;;7.89;100.00;94002.16;7403599;19;20857;-91
2024/01/04 01:32:34;;;;;;;2.40;0.80;;;;;;;7.67;100.00;93985.97;7401212;19;20421;-92
2024/01/04 01:35:15;;;;;;;1.13;1.00;;;;;;;7.74;100.00;93985.41;7403064;19;20391;-92
2024/01/04 01:37:57;;;;;;;1.10;0.97;;;;;;;8.26;100.00;94065.34;7403088;19;20397;-91
2024/01/04 01:40:39;;;;;;;2.70;1.20;;;;;;;7.36;100.00;93955.41;7402516;19;20389;-94
2024/01/04 01:43:20;;;;;;;2.60;1.10;;;;;;;7.74;100.00;93993.97;7400956;19;20442;-92
2024/01/04 01:46:02;;;;;;;3.10;1.10;;;;;;;7.36;100.00;93957.25;7403040;19;20375;-92
2024/01/04 01:48:43;;;;;;;1.93;1.10;;;;;;;7.10;100.00;93924.56;7402683;19;20386;-91
2024/01/04 01:51:24;;;;;;;1.10;0.80;;;;;;;7.75;100.00;94011.16;7401559;19;20447;-92
2024/01/04 01:54:06;;;;;;;1.83;0.90;;;;;;;7.47;100.00;93977.28;7401741;19;20388;-91
2024/01/04 01:56:47;;;;;;;0.70;0.70;;;;;;;8.01;100.00;94064.75;7402075;19;20485;-88
2024/01/04 01:59:29;;;;;;;3.10;1.00;;;;;;;8.16;100.00;94074.44;7401305;19;20401;-93
2024/01/04 02:02:10;;;;;;;1.60;0.97;;;;;;;7.42;100.00;93989.81;7401518;19;20396;-91
2024/01/04 02:04:53;;;;;;;1.20;0.93;;;;;;;7.52;100.00;93993.78;7401738;19;20377;-92
2024/01/04 02:07:34;;;;;;;3.03;0.90;;;;;;;8.01;100.00;94055.06;7401876;19;20392;-92
2024/01/04 02:10:15;;;;;;;1.33;0.80;;;;;;;7.66;100.00;94022.84;7400819;19;20377;-92
2024/01/04 02:12:56;;;;;;;0.93;0.87;;;;;;;7.75;100.00;94024.22;7399139;19;20429;-94
2024/01/04 02:15:37;;;;;;;1.20;0.70;;;;;;;7.12;100.00;93950.31;7401533;19;20401;-93
2024/01/04 02:18:18;;;;;;;1.20;1.10;;;;;;;7.95;100.00;94061.59;7401022;19;20381;-94
2024/01/04 02:20:59;;;;;;;6.90;1.20;;;;;;;7.44;100.00;93998.84;7400864;19;20389;-92
2024/01/04 02:23:40;;;;;;;1.63;0.80;;;;;;;7.85;100.00;94063.97;7398996;19;20400;-91
2024/01/04 02:26:21;;;;;;;1.47;0.90;;;;;;;7.94;100.00;94078.38;7401438;19;20454;-92
2024/01/04 02:29:02;;;;;;;1.00;0.80;;;;;;;7.11;100.00;93964.44;7401661;19;20397;-92
2024/01/04 02:31:48;;;;;;;0.77;0.77;;;;;;;8.17;100.00;94120.38;7400510;19;20890;-93
2024/01/04 02:37:29;;;;;;;1.00;0.80;;;;;;;7.56;100.00;94023.34;7403114;19;20664;-93
2024/01/04 02:40:13;;;;;;;1.97;1.40;;;;;;;7.80;100.00;94070.19;7398458;19;20858;-93
2024/01/04 02:42:55;;;;;;;1.43;0.73;;;;;;;8.05;100.00;94118.59;7399381;19;20437;-92
2024/01/04 02:45:36;;;;;;;2.50;0.80;;;;;;;7.63;100.00;94062.69;7400738;19;20408;-92
2024/01/04 02:48:17;;;;;;;1.13;1.03;;;;;;;7.62;100.00;94066.38;7400464;19;20423;-93
2024/01/04 02:50:58;;;;;;;0.93;0.87;;;;;;;8.12;100.00;94140.78;7400229;19;20401;-92
2024/01/04 02:53:39;;;;;;;0.80;0.70;;;;;;;7.42;100.00;94042.75;7398000;19;20741;-92
2024/01/04 02:56:21;;;;;;;1.00;0.80;;;;;;;7.02;100.00;93982.84;7400326;19;20372;-93
2024/01/04 02:59:02;;;;;;;0.70;0.70;;;;;;;7.30;100.00;94045.41;7399652;19;20689;-92
2024/01/04 03:01:48;;;;;;;1.37;1.07;;;;;;;7.17;100.00;94023.06;7400077;19;20408;-92
2024/01/04 03:04:29;;;;;;;1.17;0.70;;;;;;;6.94;100.00;93998.63;7399474;19;20842;-92
2024/01/04 03:07:10;;;;;;;1.27;0.60;;;;;;;6.99;100.00;94021.84;7399093;19;20393;-92
2024/01/04 03:09:54;;;;;;;0.80;0.70;;;;;;;6.92;100.00;93998.22;7399203;19;20373;-93
2024/01/04 03:12:37;;;;;;;0.80;0.60;;;;;;;7.30;100.00;94045.41;7398621;19;20764;-92
2024/01/04 03:15:18;;;;;;;1.63;0.97;;;;;;;7.53;100.00;94084.03;7398960;19;20870;-93
2024/01/04 03:18:00;;;;;;;0.80;0.67;;;;;;;7.40;100.00;94071.03;7399668;19;20369;-92
2024/01/04 03:20:41;;;;;;;0.70;0.70;;;;;;;6.94;100.00;93998.63;7398779;19;20451;-93
2024/01/04 03:23:22;;;;;;;1.20;0.70;;;;;;;6.90;100.00;93995.91;7396610;19;20428;-92
2024/01/04 03:26:03;;;;;;;0.70;0.67;;;;;;;7.31;100.00;94044.34;7399345;19;20369;-92
2024/01/04 03:28:44;;;;;;;0.60;0.60;;;;;;;7.16;100.00;94026.78;7399880;19;20686;-92
2024/01/04 03:31:25;;;;;;;0.70;0.70;;;;;;;7.35;100.00;94047.81;7400152;19;20797;-92
2024/01/04 03:34:07;;;;;;;0.70;0.60;;;;;;;7.67;100.00;94079.19;7399668;19;20365;-92
2024/01/04 03:36:48;;;;;;;1.23;0.80;;;;;;;6.96;100.00;93978.97;7398232;19;20412;-92
2024/01/04 03:39:29;;;;;;;4.83;0.80;;;;;;;7.41;100.00;94049.06;7398852;19;20400;-92
2024/01/04 03:42:10;;;;;;;1.57;1.40;;;;;;;7.65;100.00;94097.78;7399113;19;20407;-92
2024/01/04 03:44:51;;;;;;;1.20;1.10;;;;;;;7.22;100.00;94016.88;7398167;19;20405;-93
2024/01/04 03:47:32;;;;;;;1.70;0.90;;;;;;;7.01;100.00;93991.00;7398565;19;20878;-92
2024/01/04 03:50:13;;;;;;;0.70;0.70;;;;;;;7.63;100.00;94071.28;7398500;19;20383;-92
2024/01/04 03:52:54;;;;;;;2.20;0.80;;;;;;;7.23;100.00;94037.41;7397387;19;20488;-92
2024/01/04 03:55:36;;;;;;;0.90;0.70;;;;;;;7.00;100.00;93986.88;7398421;19;20675;-93
2024/01/04 03:58:17;;;;;;;0.70;0.70;;;;;;;7.24;100.00;94028.50;7397842;19;20854;-92
2024/01/04 04:00:58;;;;;;;1.57;0.60;;;;;;;7.89;100.00;94123.03;7397846;19;20417;-92
2024/01/04 04:03:39;;;;;;;0.90;0.70;;;;;;;7.52;100.00;94072.09;7396719;19;20434;-92
2024/01/04 04:06:20;;;;;;;0.70;0.63;;;;;;;7.12;100.00;94013.66;7398153;19;20353;-92
2024/01/04 04:09:02;;;;;;;0.63;0.63;;;;;;;7.49;100.00;94052.63;7399511;19;20376;-92
2024/01/04 04:11:43;;;;;;;1.20;0.70;;;;;;;7.18;100.00;94011.59;7396953;19;20396;-92
2024/01/04 04:14:24;;;;;;;1.83;0.77;;;;;;;7.10;100.00;94007.25;7398030;19;20460;-93
2024/01/04 04:17:05;;;;;;;1.97;0.67;;;;;;;7.03;100.00;94007.81;7398039;19;20388;-93
2024/01/04 04:19:46;;;;;;;1.00;0.60;;;;;;;8.18;100.00;94155.84;7397820;19;20372;-92
2024/01/04 04:22:28;;;;;;;2.00;1.63;;;;;;;6.77;100.00;93960.53;7396746;19;20727;-92
2024/01/04 04:25:09;;;;;;;1.40;1.30;;;;;;;7.01;100.00;93986.53;7397309;19;20384;-92
2024/01/04 04:27:50;;;;;;;0.80;0.80;;;;;;;6.63;100.00;93915.88;7398990;19;20372;-93
2024/01/04 04:30:31;;;;;;;0.80;0.80;;;;;;;7.01;100.00;93999.56;7398280;19;20450;-92
2024/01/04 04:33:12;;;;;;;0.80;0.70;;;;;;;6.47;100.00;93918.41;7397406;19;20453;-93
2024/01/04 04:35:53;;;;;;;7.80;0.80;;;;;;;6.91;100.00;93987.03;7403983;19;20429;-93
2024/01/04 04:38:34;;;;;;;0.90;0.90;;;;;;;7.52;100.00;94087.75;7407263;19;20365;-92
2024/01/04 04:41:16;;;;;;;0.83;0.80;;;;;;;7.16;100.00;94032.75;7406815;19;20688;-92
2024/01/04 04:43:57;;;;;;;1.33;0.80;;;;;;;7.36;100.00;94074.66;7403863;19;20448;-92
2024/01/04 04:46:38;;;;;;;2.13;0.87;;;;;;;7.37;100.00;94074.31;7403857;19;20375;-93
2024/01/04 04:49:19;;;;;;;1.63;0.70;;;;;;;7.92;100.00;94132.81;7403954;19;20379;-92
2024/01/04 04:52:00;;;;;;;0.80;0.70;;;;;;;7.61;100.00;94102.16;7402682;19;20444;-92
2024/01/04 04:54:41;;;;;;;0.80;0.70;;;;;;;7.30;100.00;94068.91;7404687;19;20373;-92
2024/01/04 04:57:23;;;;;;;2.40;0.90;;;;;;;6.96;100.00;94017.31;7404348;19;20392;-92
2024/01/04 05:00:04;;;;;;;1.60;1.10;;;;;;;7.68;100.00;94112.03;7403255;19;20388;-92
2024/01/04 05:02:45;;;;;;;0.70;0.70;;;;;;;7.34;100.00;94071.63;7402475;19;20424;-92
2024/01/04 05:05:27;;;;;;;0.97;0.60;;;;;;;7.41;100.00;94090.81;7403301;19;20393;-92
2024/01/04 05:08:09;;;;;;;0.77;0.73;;;;;;;7.58;100.00;94107.31;7403189;19;21095;-91
2024/01/04 05:10:50;;;;;;;0.87;0.70;;;;;;;7.76;100.00;94163.34;7403022;19;20413;-92
2024/01/04 05:13:31;;;;;;;3.70;1.43;;;;;;;7.39;100.00;94098.22;7402467;19;20400;-92
2024/01/04 05:16:12;;;;;;;1.67;0.70;;;;;;;7.23;100.00;94066.13;7402900;19;20380;-92
2024/01/04 05:18:53;;;;;;;1.53;0.90;;;;;;;7.74;100.00;94144.66;7403300;19;20385;-92
2024/01/04 05:21:34;;;;;;;0.83;0.83;;;;;;;7.62;100.00;94142.84;7431904;19;20380;-91
2024/01/04 05:24:15;;;;;;;1.00;0.60;;;;;;;7.47;100.00;94120.06;7433376;19;20375;-91
2024/01/04 05:26:56;;;;;;;1.77;0.83;;;;;;;7.20;100.00;94090.25;7433414;19;20406;-91
2024/01/04 05:29:37;;;;;;;2.23;0.70;;;;;;;7.27;100.00;94100.88;7432953;19;20382;-91
2024/01/04 05:32:18;;;;;;;0.77;0.77;;;;;;;7.28;100.00;94097.16;7431742;19;20424;-91
2024/01/04 05:34:59;;;;;;;1.23;1.00;;;;;;;7.90;100.00;94176.78;7412408;19;20438;-92
2024/01/04 05:37:41;;;;;;;0.70;0.67;;;;;;;7.01;100.00;94049.13;7405179;19;20403;-92
2024/01/04 05:40:22;;;;;;;1.10;0.83;;;;;;;7.63;100.00;94141.00;7405139;19;20388;-92
2024/01/04 05:43:03;;;;;;;0.90;0.90;;;;;;;7.45;100.00;94122.25;7401158;19;20412;-93
2024/01/04 05:45:44;;;;;;;0.80;0.60;;;;;;;6.53;100.00;93977.78;7402029;19;20415;-92
2024/01/04 05:48:25;;;;;;;2.20;0.90;;;;;;;7.15;100.00;94083.41;7402279;19;20699;-92
2024/01/04 05:51:06;;;;;;;1.57;1.10;;;;;;;7.08;100.00;94077.25;7402443;19;20377;-93
2024/01/04 05:53:48;;;;;;;1.00;0.77;;;;;;;7.94;100.00;94208.19;7399492;19;20420;-92
2024/01/04 05:56:29;;;;;;;0.83;0.60;;;;;;;8.33;100.00;94271.94;7402121;19;20359;-92
2024/01/04 05:59:10;;;;;;;0.70;0.70;;;;;;;7.00;100.00;94099.00;7401648;19;20376;-92
2024/01/04 06:01:52;;;;;;;1.40;1.20;;;;;;;7.29;100.00;94126.63;7401534;19;20413;-92
2024/01/04 06:04:33;;;;;;;5.57;0.90;;;;;;;7.32;100.00;94137.19;7401796;19;20373;-92
2024/01/04 06:07:14;;;;;;;0.80;0.70;;;;;;;7.60;100.00;94184.19;7401185;19;20376;-92
2024/01/04 06:09:55;;;;;;;1.03;0.80;;;;;;;7.28;100.00;94141.53;7401159;19;20870;-92
2024/01/04 06:12:36;;;;;;;0.70;0.60;;;;;;;7.88;100.00;94236.41;7399620;19;20469;-92
2024/01/04 06:15:17;;;;;;;1.60;0.83;;;;;;;7.31;100.00;94161.00;7401472;19;20388;-91
2024/01/04 06:17:58;;;;;;;1.37;1.07;;;;;;;7.67;100.00;94213.06;7401741;19;20373;-92
2024/01/04 06:20:39;;;;;;;1.33;0.90;;;;;;;7.23;100.00;94161.88;7401124;19;20865;-92
2024/01/04 06:23:21;;;;;;;2.33;1.77;;;;;;;7.50;100.00;94202.91;7400028;19;20412;-92
2024/01/04 06:26:02;;;;;;;2.90;1.50;;;;;;;7.98;100.00;94282.22;7400643;19;20396;-92
2024/01/04 06:28:43;;;;;;;1.57;0.97;;;;;;;8.00;100.00;94282.63;7400869;19;20381;-92
2024/01/04 06:31:24;;;;;;;2.70;1.40;;;;;;;7.95;100.00;94281.00;7400231;19;20874;-92
2024/01/04 06:34:05;;;;;;;2.60;1.10;;;;;;;7.40;100.00;94185.84;7400178;19;20901;-92
2024/01/04 06:36:47;;;;;;;1.20;1.10;;;;;;;7.71;100.00;94262.81;7398835;19;20748;-92
2024/01/04 06:39:29;;;;;;;0.80;0.80;;;;;;;6.98;100.00;94148.09;7400954;19;20421;-92
2024/01/04 06:42:14;;;;;;;1.10;1.00;;;;;;;8.39;100.00;94363.97;7400002;19;20425;-92
2024/01/04 06:44:56;;;;;;;1.53;1.03;;;;;;;8.17;100.00;94326.78;7400953;19;20389;-92
2024/01/04 06:47:37;;;;;;;0.93;0.80;;;;;;;7.91;100.00;94303.66;7400014;19;20402;-93
2024/01/04 06:50:18;;;;;;;0.90;0.80;;;;;;;7.29;100.00;94199.69;7400248;19;20378;-92
2024/01/04 06:52:59;;;;;;;1.10;0.97;;;;;;;7.55;100.00;94249.66;7400651;19;20462;-93
2024/01/04 06:55:41;;;;;;;1.87;1.20;;;;;;;7.71;100.00;94289.66;7400413;19;20414;-92
2024/01/04 06:58:22;;;;;;;1.10;1.00;;;;;;;7.79;100.00;94298.44;7398372;19;20869;-93
2024/01/04 07:01:04;;;;;;;1.27;1.10;;;;;;;8.07;100.00;94351.50;7400221;19;20364;-92
2024/01/04 07:03:46;;;;;;;2.23;1.77;;;;;;;7.36;100.00;94231.19;7397800;19;20710;-92
2024/01/04 07:06:27;;;;;;;2.70;1.80;;;;;;;7.81;100.00;94326.84;7399662;19;20392;-92
2024/01/04 07:09:08;;;;;;;2.40;2.20;;;;;;;8.06;100.00;94349.97;7399916;19;20385;-92
2024/01/04 07:11:51;;;;;;;1.60;0.97;;;;;;;7.68;100.00;94302.59;7398556;19;20424;-92
2024/01/04 07:14:32;;;;;;;2.00;1.90;;;;;;;7.61;100.00;94294.56;7399453;19;20392;-93
2024/01/04 07:17:14;;;;;;;1.20;1.10;;;;;;;7.83;100.00;94338.47;7403063;19;20404;-90
2024/01/04 07:19:55;;;;;;;0.90;0.70;;;;;;;7.82;100.00;94336.19;7395829;19;20491;-88
2024/01/04 07:22:37;;;;;;;1.00;0.90;;;;;;;7.72;100.00;94332.19;7393959;19;20412;-87
2024/01/04 07:25:22;;;;;;;1.93;1.13;;;;;;;7.65;100.00;94322.28;7397790;19;20414;-88
2024/01/04 07:28:03;;;;;;;1.67;1.17;;;;;;;7.51;100.00;94295.00;7398158;19;20388;-88
2024/01/04 07:30:44;;;;;;;3.00;0.90;;;;;;;8.31;100.00;94410.03;7397492;19;20373;-88
2024/01/04 07:33:26;;;;;;;1.43;1.33;;;;;;;7.80;100.00;94331.31;7398069;19;20385;-88
2024/01/04 07:36:07;;;;;;;4.70;4.40;;;;;;;8.44;100.00;94437.66;7396827;19;20716;-88
2024/01/04 07:38:49;;;;;;;7.83;7.23;;;;;;;8.02;100.00;94370.00;7397645;19;20381;-88
2024/01/04 07:41:30;;;;;;;7.17;6.47;;;;;;;7.47;100.00;94300.13;7397353;19;20384;-88
2024/01/04 07:44:14;;;;;;;5.03;4.63;;;;;;;7.74;100.00;94335.22;7397212;19;20368;-88
2024/01/04 07:46:55;;;;;;;6.00;5.30;;;;;;;7.28;100.00;94261.53;7398774;19;20361;-88
2024/01/04 07:49:36;;;;;;;2.80;2.60;;;;;;;7.31;100.00;94281.00;7396572;19;20385;-88
2024/01/04 07:52:17;;;;;;;3.17;2.97;;;;;;;7.72;100.00;94347.88;7396184;19;20461;-88
2024/01/04 07:54:58;;;;;;;3.43;3.13;;;;;;;7.63;100.00;94344.59;7396788;19;20866;-88
2024/01/04 07:57:39;;;;;;;5.83;4.47;;;;;;;7.91;100.00;94392.44;7396215;19;20373;-88
2024/01/04 08:00:21;;;;;;;1.93;1.83;;;;;;;7.81;100.00;94368.63;7396264;19;20890;-88
2024/01/04 08:03:03;;;;;;;4.33;2.63;;;;;;;7.83;100.00;94359.34;7397056;19;20894;-88
2024/01/04 08:05:44;;;;;;;5.47;5.20;;;;;;;7.71;100.00;94362.78;7396520;19;20368;-88
2024/01/04 08:08:28;;;;;;;1.53;1.10;;;;;;;7.66;100.00;94349.16;7395147;19;20376;-88
2024/01/04 08:11:09;;;;;;;1.67;1.57;;;;;;;7.49;100.00;94329.28;7396730;19;20388;-89
2024/01/04 08:13:51;;;;;;;2.33;2.23;;;;;;;8.10;100.00;94409.41;7394649;19;20395;-88
2024/01/04 08:16:32;;;;;;;1.27;1.17;;;;;;;7.29;100.00;94278.69;7395993;19;20380;-89
2024/01/04 08:19:13;;;;;;;2.10;1.70;;;;;;;7.93;100.00;94394.72;7396277;19;20687;-88
2024/01/04 08:21:56;;;;;;;1.10;1.00;;;;;;;7.86;100.00;94384.09;7396418;19;20909;-88
2024/01/04 08:24:40;;;;;;;0.70;0.70;;;;;;;7.51;100.00;94334.91;7396650;19;20400;-89
2024/01/04 08:27:21;;;;;;;1.80;1.70;;;;;;;7.66;100.00;94355.13;7396048;19;20381;-88
2024/01/04 08:30:03;;;;;;;1.20;0.90;;;;;;;8.36;100.00;94459.44;7396001;19;20459;-88
2024/01/04 08:32:44;;;;;;;1.00;0.90;;;;;;;7.96;100.00;94396.69;7395040;19;20448;-89
2024/01/04 08:35:25;;;;;;;1.30;1.03;;;;;;;7.41;100.00;94330.88;7395023;19;20437;-89
2024/01/04 08:38:06;;;;;;;1.20;1.10;;;;;;;7.96;100.00;94394.81;7395795;19;20380;-89
2024/01/04 08:40:47;;;;;;;1.80;1.60;;;;;;;7.00;100.00;94251.00;7396044;19;20448;-88
2024/01/04 08:43:28;;;;;;;1.00;0.90;;;;;;;8.17;100.00;94438.34;7393611;19;20492;-89
2024/01/04 08:46:10;;;;;;;5.07;4.57;;;;;;;7.69;100.00;94356.31;7395033;19;20394;-89
2024/01/04 08:48:51;;;;;;;1.50;1.40;;;;;;;8.71;100.00;94506.03;7395324;19;20402;-89
2024/01/04 08:51:32;;;;;;;2.37;2.20;;;;;;;8.05;100.00;94423.44;7396032;19;20401;-89
2024/01/04 08:54:13;;;;;;;2.13;1.93;;;;;;;8.30;100.00;94455.53;7395061;19;20678;-88
2024/01/04 08:56:54;;;;;;;2.17;1.93;;;;;;;7.50;100.00;94336.00;7395828;19;20387;-89
2024/01/04 08:59:35;;;;;;;6.13;5.57;;;;;;;7.49;100.00;94357.22;7395598;19;20381;-89
2024/01/04 09:02:16;;;;;;;4.23;2.87;;;;;;;8.07;100.00;94452.63;7394342;19;20404;-89
2024/01/04 09:04:57;;;;;;;1.30;1.00;;;;;;;8.58;100.00;94531.44;7395608;19;20361;-89
2024/01/04 09:07:39;;;;;;;2.03;1.50;;;;;;;7.88;100.00;94447.19;7394896;19;20370;-89
2024/01/04 09:10:20;;;;;;;1.10;1.00;;;;;;;7.31;100.00;94356.66;7395502;19;20388;-89
2024/01/04 09:13:02;;;;;;;0.97;0.87;;;;;;;7.59;100.00;94403.78;7393126;19;20416;-88
2024/01/04 09:15:43;;;;;;;0.80;0.80;;;;;;;7.84;100.00;94433.25;7395420;19;20372;-89
2024/01/04 09:18:25;;;;;;;0.83;0.83;;;;;;;7.46;100.00;94390.72;7395069;19;20385;-89
2024/01/04 09:21:06;;;;;;;1.03;0.80;;;;;;;7.63;100.00;94422.91;7399141;19;20390;-88
2024/01/04 09:23:47;;;;;;;2.40;1.40;;;;;;;8.06;100.00;94495.50;7399818;19;20431;-88
2024/01/04 09:26:28;;;;;;;1.37;1.00;;;;;;;7.89;100.00;94493.09;7402430;19;20376;-88
2024/01/04 09:29:10;;;;;;;1.10;0.90;;;;;;;7.79;100.00;94465.56;7403789;19;20364;-84
2024/01/04 09:31:51;;;;;;;1.67;1.47;;;;;;;7.72;100.00;94447.84;7400893;19;20396;-85
2024/01/04 09:34:33;;;;;;;1.30;1.20;;;;;;;7.70;100.00;94438.78;7401846;19;20389;-88
2024/01/04 09:37:14;;;;;;;2.70;0.90;;;;;;;7.49;100.00;94415.41;7398589;19;20425;-89
2024/01/04 09:39:55;;;;;;;1.47;0.97;;;;;;;7.75;100.00;94434.13;7401121;19;20461;-87
2024/01/04 09:42:42;;;;;;;3.00;0.90;;;;;;;8.36;100.00;94520.31;7399774;19;20965;-88
2024/01/04 09:45:24;;;;;;;1.30;1.07;;;;;;;7.52;100.00;94399.06;7400797;19;20376;-89
2024/01/04 09:48:10;;;;;;;0.80;0.80;;;;;;;8.07;100.00;94489.19;7402416;19;20397;-88
2024/01/04 09:50:52;;;;;;;1.10;0.80;;;;;;;7.74;100.00;94430.00;7400652;19;20377;-88
2024/01/04 09:53:33;;;;;;;0.90;0.80;;;;;;;8.40;100.00;94537.97;7399270;19;20422;-88
2024/01/04 09:56:15;;;;;;;3.50;1.70;;;;;;;7.45;100.00;94399.63;7408992;19;20430;-88
2024/01/04 09:58:56;;;;;;;1.70;1.40;;;;;;;8.23;100.00;94503.13;7430327;19;20396;-87
2024/01/04 10:01:38;;;;;;;0.67;0.60;;;;;;;8.73;100.00;94595.38;7431463;19;20460;-86
2024/01/04 10:04:20;;;;;;;1.00;0.90;;;;;;;7.94;100.00;94485.81;7432184;19;20373;-87
2024/01/04 10:07:07;;;;;;;1.97;1.50;;;;;;;7.74;100.00;94463.16;7432108;19;20380;-87
2024/01/04 10:10:08;;;;;;;2.40;1.43;;;;;;;8.68;100.00;94600.84;7431660;19;20398;-87
2024/01/04 10:12:51;;;;;;;4.07;2.03;;;;;;;8.16;100.00;94533.50;7400419;19;20409;-88
2024/01/04 10:15:32;;;;;;;1.50;1.40;;;;;;;8.06;100.00;94514.56;7402087;19;20368;-89
2024/01/04 10:18:13;;;;;;;2.60;1.10;;;;;;;8.23;100.00;94549.41;7404581;19;20361;-89
2024/01/04 10:21:05;;;;;;;1.00;0.90;;;;;;;7.81;100.00;94481.66;7402426;19;20381;-88
2024/01/04 10:23:57;;;;;;;0.70;0.70;;;;;;;7.96;100.00;94509.75;7400770;19;20408;-88
2024/01/04 10:26:38;;;;;;;1.33;1.13;;;;;;;8.33;100.00;94569.88;7429267;19;20369;-88
2024/01/04 10:29:20;;;;;;;2.17;0.97;;;;;;;8.73;100.00;94626.75;7430522;19;20376;-87
2024/01/04 10:32:03;;;;;;;2.27;2.10;;;;;;;7.89;100.00;94499.09;7428306;19;20406;-86
2024/01/04 10:34:45;;;;;;;0.70;0.70;;;;;;;7.79;100.00;94488.31;7431040;19;20396;-86
2024/01/04 10:37:26;;;;;;;1.60;1.40;;;;;;;7.92;100.00;94518.56;7420924;19;20495;-89
2024/01/04 10:40:09;;;;;;;3.03;2.83;;;;;;;8.48;100.00;94587.53;7403485;19;20373;-88
2024/01/04 10:42:54;;;;;;;2.57;2.37;;;;;;;7.81;100.00;94507.78;7398715;19;20948;-88
2024/01/04 10:45:35;;;;;;;1.67;1.57;;;;;;;8.10;100.00;94543.41;7399409;19;20385;-89
2024/01/04 10:48:17;;;;;;;1.70;1.60;;;;;;;7.24;100.00;94452.97;7399577;19;20381;-89
2024/01/04 10:51:03;;;;;;;4.97;1.10;;;;;;;8.00;100.00;94546.44;7399566;19;20384;-89
2024/01/04 10:53:47;;;;;;;1.63;1.53;;;;;;;7.46;100.00;94463.03;7396946;19;20886;-89
2024/01/04 10:56:35;;;;;;;1.60;1.50;;;;;;;8.07;100.00;94565.72;7399138;19;20381;-88
2024/01/04 10:59:17;;;;;;;0.90;0.90;;;;;;;8.23;100.00;94599.03;7400718;19;20449;-88
2024/01/04 11:01:59;;;;;;;1.10;1.00;;;;;;;8.65;100.00;94629.16;7398944;19;20415;-88
2024/01/04 11:04:43;;;;;;;0.80;0.80;;;;;;;8.67;100.00;94639.28;7398690;19;20369;-89
2024/01/04 11:07:26;;;;;;;1.07;0.97;;;;;;;8.16;100.00;94572.69;7398742;19;20382;-88
2024/01/04 11:10:09;;;;;;;0.80;0.70;;;;;;;6.73;100.00;94376.75;7398129;19;20398;-89
2024/01/04 11:12:51;;;;;;;1.60;1.50;;;;;;;7.52;100.00;94508.69;7398920;19;20413;-88
2024/01/04 11:15:32;;;;;;;1.67;1.57;;;;;;;7.36;100.00;94479.09;7397850;19;20461;-89
2024/01/04 11:18:33;;;;;;;2.40;2.20;;;;;;;8.54;100.00;94654.22;7398125;19;20376;-88
2024/01/04 11:21:41;;;;;;;1.10;1.00;;;;;;;7.64;100.00;94544.53;7397770;19;20384;-89
2024/01/04 11:24:47;;;;;;;1.43;1.33;;;;;;;8.36;100.00;94664.06;7398017;19;20361;-88
2024/01/04 11:27:29;;;;;;;1.40;1.30;;;;;;;7.42;100.00;94530.75;7398572;19;20377;-88
2024/01/04 11:30:10;;;;;;;5.77;5.27;;;;;;;7.57;100.00;94549.47;7397698;19;20372;-88
2024/01/04 11:32:52;;;;;;;4.90;2.70;;;;;;;7.33;100.00;94509.19;7396573;19;20676;-88
2024/01/04 11:35:42;;;;;;;3.80;3.50;;;;;;;7.07;100.00;94469.53;7398932;19;20477;-88
2024/01/04 11:38:26;;;;;;;1.60;1.50;;;;;;;7.39;100.00;94507.91;7401597;19;20384;-84
2024/01/04 11:41:07;;;;;;;1.60;1.50;;;;;;;7.56;100.00;94535.66;7399923;19;20384;-84
2024/01/04 11:43:50;;;;;;;3.37;2.13;;;;;;;7.98;100.00;94593.78;7397280;19;20408;-85
2024/01/04 11:46:32;;;;;;;1.57;1.47;;;;;;;7.78;100.00;94559.88;7397874;19;20381;-89
2024/01/04 11:49:14;;;;;;;2.90;2.70;;;;;;;8.14;100.00;94593.16;7398564;19;20850;-88
2024/01/04 11:52:04;;;;;;;2.37;2.17;;;;;;;7.68;100.00;94517.44;7399660;19;20374;-88
2024/01/04 11:54:45;;;;;;;1.77;1.67;;;;;;;7.98;100.00;94572.13;7398648;19;20368;-88
2024/01/04 11:57:27;;;;;;;2.90;2.70;;;;;;;7.94;100.00;94550.34;7398233;19;20389;-88
2024/01/04 12:00:15;;;;;;;1.50;1.40;;;;;;;8.07;100.00;94564.94;7396652;19;20384;-88
2024/01/04 12:02:59;;;;;;;2.47;2.27;;;;;;;8.34;100.00;94613.22;7395433;19;20923;-89
2024/01/04 12:05:45;;;;;;;1.20;1.10;;;;;;;6.99;100.00;94413.75;7396435;19;20402;-88
2024/01/04 12:08:30;;;;;;;1.90;1.30;;;;;;;7.49;100.00;94509.34;7396221;19;20878;-88
2024/01/04 12:11:15;;;;;;;1.97;1.20;;;;;;;7.85;100.00;94563.50;7397086;19;20396;-88
2024/01/04 12:13:56;;;;;;;1.90;1.80;;;;;;;7.71;100.00;94555.22;7394403;19;20385;-88
2024/01/04 12:16:39;;;;;;;1.20;0.90;;;;;;;7.40;100.00;94525.09;7396289;19;20380;-88
2024/01/04 12:19:20;;;;;;;1.60;1.50;;;;;;;7.61;100.00;94530.25;7395766;19;20393;-87
2024/01/04 12:22:01;;;;;;;1.73;1.63;;;;;;;8.02;100.00;94601.75;7396249;19;20424;-88
2024/01/04 12:24:43;;;;;;;2.03;1.17;;;;;;;8.57;100.00;94682.31;7397717;19;20896;-88
2024/01/04 12:27:25;;;;;;;1.20;1.10;;;;;;;7.23;100.00;94472.31;7398776;19;20364;-88
2024/01/04 12:30:06;;;;;;;0.80;0.80;;;;;;;7.89;100.00;94551.31;7395933;19;20381;-89
2024/01/04 12:32:47;;;;;;;1.20;1.10;;;;;;;8.10;100.00;94595.66;7394450;19;20961;-88
2024/01/04 12:35:29;;;;;;;1.20;0.80;;;;;;;7.63;100.00;94537.78;7396028;19;20471;-88
2024/01/04 12:38:10;;;;;;;1.03;0.90;;;;;;;8.06;100.00;94602.63;7395897;19;20870;-88
2024/01/04 12:40:54;;;;;;;1.13;1.00;;;;;;;8.16;100.00;94617.88;7395652;19;20392;-88
2024/01/04 12:43:37;;;;;;;2.30;1.50;;;;;;;8.42;100.00;94664.66;7402934;19;20385;-88
2024/01/04 12:46:22;;;;;;;2.30;1.67;;;;;;;8.49;100.00;94664.88;7425618;19;20381;-88